Friday, May 25, 2018, 8:57 AM EDT
Back to Local

KIZG, Fryeburg Eastern Slopes Rgnl

Location: Fryeburg, ME, United States Lat: 43.983
Local Time: 8:57 AM EDT (12:57 GMT) Lon: -70.95
Time Zone: US/Eastern Elev: 452 ft

Show me the last for .
Show Coded

Time T Td Feel RH Dir Speed Gust Alt SLP Vis Weather Sky Remarks
2018-05-25 07:54 72 46 - 39 220° 9 18 29.83 29.83 10 CLR 6-hr Min Temp (8am): 45.0°F
6-hr Max Temp (8am): 72.0°F
2018-05-25 06:54 67 45 - 45 Variable 6 - 29.84 29.84 10 CLR None
2018-05-25 05:54 66 42 - 41 240° 6 - 29.85 29.85 10 CLR None
2018-05-25 04:54 62 41 - 45 250° 9 - 29.85 29.85 10 CLR None
2018-05-25 03:54 62 40 - 44 250° 9 18 29.86 29.86 10 CLR None
2018-05-25 02:54 58 39 - 49 250° 9 - 29.88 29.88 10 CLR None
2018-05-25 01:54 46 42 - 85 - Calm - 29.91 29.91 10 CLR 6-hr Min Temp (2am): 46.0°F
6-hr Max Temp (2am): 64.9°F
2018-05-25 00:54 47 42 - 83 - Calm - 29.95 29.95 10 CLR 24-hr Min Temp (1am): 46.9°F
24-hr Max Temp (1am): 73.9°F
2018-05-24 23:54 47 45 - 92 - Calm - 29.98 29.98 10 CLR None
2018-05-24 22:54 50 44 - 79 - Calm - 29.99 29.99 10 CLR None
2018-05-24 21:54 52 45 - 76 160° 3 - 30.01 30.01 10 CLR None
2018-05-24 20:54 58 41 - 53 220° 6 - 30.01 30.01 10 CLR None
2018-05-24 19:54 66 40 - 38 - Calm - 30.00 30.00 10 CLR 6-hr Min Temp (8pm): 64.9°F
6-hr Max Temp (8pm): 73.9°F
2018-05-24 18:54 71 35 - 26 - Calm - 30.00 30.00 10 CLR None
2018-05-24 17:54 73 36 - 25 310° 9 - 30.00 30.00 10 CLR None
2018-05-24 16:54 73 35 - 24 280° 10 20 30.01 30.01 10 FEW110 None
2018-05-24 15:54 72 35 - 25 290° 9 - 30.02 30.03 10 CLR None
2018-05-24 14:54 71 32 - 23 290° 10 - 30.04 30.04 10 CLR None
2018-05-24 13:54 72 32 - 22 Variable 6 - 30.05 30.05 10 CLR 6-hr Min Temp (2pm): 55.0°F
6-hr Max Temp (2pm): 72.0°F
2018-05-24 12:54 70 30 - 22 Variable 6 - 30.07 30.07 10 CLR None
2018-05-24 11:54 69 32 - 25 - - - 30.09 30.09 10 CLR None
2018-05-24 10:54 66 38 - 35 360° 7 - 30.10 30.10 10 CLR None
2018-05-24 09:54 63 40 - 42 350° 8 - 30.10 30.10 10 CLR None

Support USWX by starting your Amazon purchase here.